Time;durP1;ratioP1;P1;durP2;ratioP2;P2;SDS_P1;SDS_P2;PMS_P1;PMS_P2;Temp;Humidity;BMP_temperature;BMP_pressure;BME280_temperature;BME280_humidity;BME280_pressure;Samples;Min_cycle;Max_cycle;Signal;HPM_P1;HPM_P2
2023/03/20 00:00:32;;;;;;;29.20;18.10;;;;;;;3.88;70.50;100433.87;102531;279;97783;-60
2023/03/20 00:03:27;;;;;;;31.60;18.20;;;;;;;3.84;70.74;100428.73;102483;279;120734;-59
2023/03/20 00:06:04;;;;;;;28.80;18.10;;;;;;;3.79;70.75;100428.16;102521;279;105334;-58
2023/03/20 00:08:44;;;;;;;27.50;17.30;;;;;;;3.77;70.82;100422.82;102494;279;114278;-58
2023/03/20 00:11:33;;;;;;;30.20;18.20;;;;;;;3.73;70.94;100423.58;102539;279;91763;-53
2023/03/20 00:14:23;;;;;;;32.80;17.60;;;;;;;3.67;71.13;100424.66;102513;279;97633;-58
2023/03/20 00:17:11;;;;;;;27.50;17.80;;;;;;;3.63;71.24;100422.35;102529;279;120140;-58
2023/03/20 00:19:50;;;;;;;23.80;16.90;;;;;;;3.55;71.33;100425.98;102526;279;105644;-53
2023/03/20 00:22:31;;;;;;;28.00;17.00;;;;;;;3.51;71.29;100421.91;102491;279;111683;-51
2023/03/20 00:25:15;;;;;;;26.40;16.00;;;;;;;3.48;71.41;100424.33;102503;279;96227;-55
2023/03/20 00:27:50;;;;;;;29.20;16.90;;;;;;;3.46;71.56;100421.33;102491;279;97002;-54
2023/03/20 00:30:41;;;;;;;23.90;16.20;;;;;;;3.41;71.74;100421.10;102505;279;120575;-55
2023/03/20 00:33:24;;;;;;;26.70;16.70;;;;;;;3.38;71.88;100423.00;102314;279;106851;-54
2023/03/20 00:36:01;;;;;;;23.70;16.30;;;;;;;3.35;71.92;100419.05;102523;279;114342;-59
2023/03/20 00:38:41;;;;;;;23.70;16.00;;;;;;;3.29;72.05;100416.20;102548;279;93435;-58
2023/03/20 00:41:32;;;;;;;26.30;16.90;;;;;;;3.27;72.12;100410.65;102544;279;97690;-58
2023/03/20 00:44:23;;;;;;;27.10;16.60;;;;;;;3.23;72.15;100412.52;102470;279;121061;-58
2023/03/20 00:47:01;;;;;;;26.10;15.60;;;;;;;3.17;72.23;100410.38;102506;279;106138;-58
2023/03/20 00:49:44;;;;;;;28.30;17.00;;;;;;;3.12;72.28;100413.33;102511;279;114779;-58
2023/03/20 00:52:24;;;;;;;26.50;17.00;;;;;;;3.10;72.41;100413.23;102540;279;95868;-57
2023/03/20 00:55:03;;;;;;;26.60;16.60;;;;;;;3.06;72.57;100409.09;102569;279;97433;-59
2023/03/20 00:57:42;;;;;;;26.50;16.10;;;;;;;3.05;72.58;100407.55;102489;279;119166;-57
2023/03/20 01:00:29;;;;;;;25.00;15.30;;;;;;;3.05;72.72;100407.21;102524;279;106562;-57
2023/03/20 01:03:14;;;;;;;23.60;16.10;;;;;;;3.03;72.87;100404.90;102521;279;114624;-57
2023/03/20 01:05:56;;;;;;;27.50;17.50;;;;;;;3.03;72.77;100404.93;102544;279;94181;-54
2023/03/20 01:08:32;;;;;;;27.10;16.80;;;;;;;2.98;72.99;100406.80;102508;279;97637;-55
2023/03/20 01:11:10;;;;;;;26.10;17.20;;;;;;;2.93;73.08;100402.44;102541;279;121611;-58
2023/03/20 01:13:44;;;;;;;28.10;17.00;;;;;;;2.89;73.15;100398.01;102526;279;104943;-59
2023/03/20 01:16:25;;;;;;;25.00;17.00;;;;;;;2.86;73.19;100399.16;102493;279;113437;-59
2023/03/20 01:19:07;;;;;;;32.60;17.10;;;;;;;2.84;73.09;100394.35;102514;279;96224;-56
2023/03/20 01:21:49;;;;;;;29.70;16.60;;;;;;;2.84;73.21;100395.81;102530;279;97689;-54
2023/03/20 01:24:35;;;;;;;25.90;16.40;;;;;;;2.82;73.34;100397.35;102477;279;120892;-61
2023/03/20 01:27:17;;;;;;;26.60;16.10;;;;;;;2.82;73.38;100400.47;102506;279;105556;-60
2023/03/20 01:29:51;;;;;;;25.10;18.00;;;;;;;2.83;73.59;100396.42;102526;279;113685;-53
2023/03/20 01:32:29;;;;;;;27.30;17.70;;;;;;;2.83;73.60;100395.20;102502;279;93378;-54
2023/03/20 01:35:06;;;;;;;25.20;17.80;;;;;;;2.82;73.57;100390.81;102547;279;98586;-55
2023/03/20 01:37:45;;;;;;;28.20;17.80;;;;;;;2.75;73.62;100392.52;102519;279;120244;-53
2023/03/20 01:40:37;;;;;;;23.80;16.60;;;;;;;2.72;73.75;100392.83;102343;279;107154;-58
2023/03/20 01:43:21;;;;;;;27.20;17.60;;;;;;;2.71;73.79;100387.27;102522;279;112788;-58
2023/03/20 01:46:16;;;;;;;23.70;16.40;;;;;;;2.67;73.93;100386.40;102535;279;95416;-57
2023/03/20 01:49:27;;;;;;;27.50;17.40;;;;;;;2.63;74.01;100383.70;102536;279;98027;-56
2023/03/20 01:52:03;;;;;;;27.40;17.20;;;;;;;2.64;74.14;100377.89;102496;279;120806;-53
2023/03/20 01:54:40;;;;;;;26.60;17.30;;;;;;;2.65;74.11;100375.17;102509;279;106343;-53
2023/03/20 01:57:26;;;;;;;25.60;17.00;;;;;;;2.69;74.23;100372.81;102487;279;112914;-52
2023/03/20 02:00:12;;;;;;;25.60;17.00;;;;;;;2.75;74.35;100373.02;102510;279;93096;-58
2023/03/20 02:02:53;;;;;;;29.10;18.10;;;;;;;2.76;74.34;100371.80;102554;279;97637;-57
2023/03/20 02:05:33;;;;;;;26.70;18.10;;;;;;;2.75;74.38;100370.81;102524;279;121133;-54
2023/03/20 02:08:31;;;;;;;29.70;18.80;;;;;;;2.73;74.39;100372.62;102529;279;103274;-55
2023/03/20 02:11:07;;;;;;;24.90;17.70;;;;;;;2.70;74.32;100374.16;102275;279;114926;-60
2023/03/20 02:13:41;;;;;;;27.20;18.00;;;;;;;2.65;74.29;100372.31;102509;279;95909;-59
2023/03/20 02:16:20;;;;;;;27.50;18.60;;;;;;;2.64;74.29;100376.81;102546;279;95363;-57
2023/03/20 02:18:56;;;;;;;29.20;19.20;;;;;;;2.63;74.36;100377.13;102531;279;122204;-55
2023/03/20 02:22:41;;;;;;;27.10;17.80;;;;;;;2.60;74.41;100375.98;102538;279;104895;-55
2023/03/20 02:26:06;;;;;;;29.70;18.90;;;;;;;2.56;74.64;100375.66;102206;279;114235;-55
2023/03/20 02:29:25;;;;;;;26.30;17.80;;;;;;;2.54;74.69;100376.73;102450;279;93750;-54
2023/03/20 02:32:42;;;;;;;32.80;18.90;;;;;;;2.49;74.69;100374.87;102518;279;97927;-54
2023/03/20 02:36:01;;;;;;;31.80;19.80;;;;;;;2.49;74.78;100371.36;102451;279;121109;-55
2023/03/20 02:38:59;;;;;;;31.80;19.80;;;;;;;2.47;74.83;100369.93;102529;279;106241;-54
2023/03/20 02:41:42;;;;;;;33.10;20.10;;;;;;;2.45;74.81;100369.35;102563;279;114415;-54
2023/03/20 02:44:28;;;;;;;32.10;19.20;;;;;;;2.44;74.95;100364.70;102484;279;96335;-55
2023/03/20 02:47:17;;;;;;;32.10;20.50;;;;;;;2.43;74.91;100363.89;102492;279;97153;-54
2023/03/20 02:50:05;;;;;;;30.80;21.20;;;;;;;2.42;74.96;100363.48;102521;279;120595;-53
2023/03/20 02:52:51;;;;;;;30.60;19.80;;;;;;;2.39;75.05;100364.73;102509;279;105566;-54
2023/03/20 02:55:38;;;;;;;31.80;20.30;;;;;;;2.35;75.03;100363.85;102541;279;114598;-54
2023/03/20 02:58:20;;;;;;;35.10;20.70;;;;;;;2.31;75.15;100367.44;102526;279;93498;-55
2023/03/20 03:01:07;;;;;;;31.00;20.60;;;;;;;2.29;75.19;100362.04;102520;279;98277;-60
2023/03/20 03:03:57;;;;;;;30.10;20.90;;;;;;;2.28;75.17;100365.02;102493;279;120701;-61
2023/03/20 03:06:35;;;;;;;32.30;20.80;;;;;;;2.24;75.12;100365.38;102490;279;106292;-53
2023/03/20 03:09:16;;;;;;;29.80;20.60;;;;;;;2.19;75.24;100360.03;102508;279;114299;-58
2023/03/20 03:12:05;;;;;;;32.80;20.90;;;;;;;2.16;75.20;100358.18;102482;279;95192;-58
2023/03/20 03:14:53;;;;;;;29.80;19.70;;;;;;;2.10;75.34;100359.37;102519;279;96743;-54
2023/03/20 03:17:41;;;;;;;32.50;21.00;;;;;;;2.08;75.28;100361.20;102512;278;121214;-54
2023/03/20 03:20:23;;;;;;;30.00;20.40;;;;;;;2.02;75.41;100360.83;102535;278;105597;-55
2023/03/20 03:23:05;;;;;;;30.60;20.00;;;;;;;1.96;75.59;100360.36;102546;278;114535;-54
2023/03/20 03:25:43;;;;;;;29.30;19.70;;;;;;;1.89;75.57;100357.00;102514;278;95207;-61
2023/03/20 03:28:26;;;;;;;34.00;20.70;;;;;;;1.90;75.52;100360.45;102425;278;98484;-61
2023/03/20 03:31:04;;;;;;;30.30;19.90;;;;;;;1.89;75.69;100357.70;102534;278;118891;-57
2023/03/20 03:33:43;;;;;;;29.50;19.70;;;;;;;1.87;75.70;100355.39;102530;278;104415;-60
2023/03/20 03:36:35;;;;;;;30.60;20.00;;;;;;;1.85;75.72;100352.80;102513;278;112289;-58
2023/03/20 03:39:18;;;;;;;30.20;21.20;;;;;;;1.84;75.84;100353.20;102552;278;93778;-60
2023/03/20 03:42:10;;;;;;;32.70;20.20;;;;;;;1.85;75.80;100350.80;102532;278;97766;-60
2023/03/20 03:44:55;;;;;;;30.40;19.90;;;;;;;1.85;75.92;100348.68;102531;278;120190;-58
2023/03/20 03:47:38;;;;;;;34.30;21.50;;;;;;;1.80;76.05;100350.15;102541;277;105925;-57
2023/03/20 03:50:27;;;;;;;35.70;21.50;;;;;;;1.75;76.12;100346.00;102496;279;114506;-53
2023/03/20 03:53:11;;;;;;;32.50;20.80;;;;;;;1.75;76.09;100350.06;102491;278;95498;-53
2023/03/20 03:55:56;;;;;;;32.20;21.40;;;;;;;1.76;76.08;100347.51;102556;274;98533;-60
2023/03/20 03:58:38;;;;;;;35.80;22.40;;;;;;;1.76;76.02;100348.39;102496;278;120314;-59
2023/03/20 04:01:17;;;;;;;34.10;21.50;;;;;;;1.75;76.21;100345.44;102628;278;104955;-54
2023/03/20 04:03:56;;;;;;;36.60;21.20;;;;;;;1.78;76.26;100342.84;102520;278;114906;-54
2023/03/20 04:06:32;;;;;;;34.50;21.50;;;;;;;1.78;76.20;100343.60;102501;278;93686;-58
2023/03/20 04:09:11;;;;;;;33.30;21.80;;;;;;;1.77;76.28;100343.31;102569;278;96119;-55
2023/03/20 04:11:52;;;;;;;32.00;21.60;;;;;;;1.77;76.37;100343.15;102522;278;120395;-54
2023/03/20 04:14:27;;;;;;;36.70;22.40;;;;;;;1.76;76.31;100339.36;102539;278;105779;-59
2023/03/20 04:17:02;;;;;;;33.10;21.50;;;;;;;1.72;76.40;100338.63;102500;278;113904;-59
2023/03/20 04:19:45;;;;;;;34.00;21.30;;;;;;;1.71;76.28;100338.73;102509;278;95718;-56
2023/03/20 04:22:20;;;;;;;34.40;22.20;;;;;;;1.65;76.43;100341.19;102490;278;98275;-54
2023/03/20 04:25:02;;;;;;;32.40;20.70;;;;;;;1.58;76.58;100340.06;102552;279;121228;-54
2023/03/20 04:27:38;;;;;;;30.60;19.90;;;;;;;1.55;76.43;100341.90;102557;279;105130;-55
2023/03/20 04:30:17;;;;;;;34.80;21.20;;;;;;;1.57;76.44;100343.31;102523;279;114776;-57
2023/03/20 04:32:53;;;;;;;36.20;21.90;;;;;;;1.58;76.61;100345.21;102538;278;93837;-58
2023/03/20 04:35:31;;;;;;;33.00;22.00;;;;;;;1.56;76.69;100343.81;102431;279;98329;-53
2023/03/20 04:38:10;;;;;;;33.00;21.80;;;;;;;1.55;76.72;100339.63;102461;279;121251;-53
2023/03/20 04:40:53;;;;;;;34.40;21.90;;;;;;;1.55;76.76;100338.52;102518;267;106107;-54
2023/03/20 04:43:28;;;;;;;32.80;20.30;;;;;;;1.58;76.66;100341.11;102549;278;114237;-55
2023/03/20 04:46:02;;;;;;;;;;;;;;;1.58;76.76;100343.27;102564;279;94982;-53
2023/03/20 04:48:44;;;;;;;33.40;19.40;;;;;;;1.56;76.91;100345.70;102491;279;97440;-54
2023/03/20 04:51:24;;;;;;;33.10;20.20;;;;;;;1.56;76.97;100346.64;102489;279;118962;-59
2023/03/20 04:54:00;;;;;;;32.40;20.90;;;;;;;1.54;77.10;100347.63;102518;278;106214;-59
2023/03/20 04:56:41;;;;;;;31.70;19.50;;;;;;;1.57;77.25;100349.91;102519;278;113128;-60
2023/03/20 04:59:19;;;;;;;32.10;19.80;;;;;;;1.65;77.29;100350.98;102552;278;93906;-54
2023/03/20 05:02:02;;;;;;;27.60;19.50;;;;;;;1.69;77.23;100349.55;102576;278;98065;-54
2023/03/20 05:04:45;;;;;;;28.70;20.30;;;;;;;1.74;77.26;100347.48;102488;279;119677;-60
2023/03/20 05:07:22;;;;;;;30.90;20.30;;;;;;;1.80;77.25;100351.19;102501;279;105750;-58
2023/03/20 05:10:00;;;;;;;28.40;18.60;;;;;;;1.86;77.37;100350.91;102479;279;114737;-54
2023/03/20 05:12:40;;;;;;;33.70;20.80;;;;;;;1.91;77.33;100355.10;102494;279;94607;-55
2023/03/20 05:15:15;;;;;;;29.10;19.10;;;;;;;2.01;77.38;100355.20;102583;279;96479;-61
2023/03/20 05:17:57;;;;;;;29.20;19.10;;;;;;;2.08;77.38;100355.52;102534;279;120574;-60
2023/03/20 05:20:31;;;;;;;32.70;20.10;;;;;;;2.17;77.51;100358.42;102539;279;105051;-58
2023/03/20 05:23:21;;;;;;;28.90;19.60;;;;;;;2.31;77.41;100358.59;102521;278;114054;-58
2023/03/20 05:25:59;;;;;;;32.40;21.00;;;;;;;2.43;77.43;100357.43;102568;279;93629;-58
2023/03/20 05:28:41;;;;;;;29.70;20.60;;;;;;;2.57;77.48;100358.88;102550;279;97892;-59
2023/03/20 05:31:19;;;;;;;31.60;20.40;;;;;;;2.69;77.49;100360.79;102549;278;121318;-60
2023/03/20 05:34:01;;;;;;;36.50;21.00;;;;;;;2.79;77.42;100357.54;102515;279;105216;-56
2023/03/20 05:36:37;;;;;;;32.60;20.80;;;;;;;2.92;77.37;100355.06;102519;279;114017;-58
2023/03/20 05:39:17;;;;;;;31.90;20.90;;;;;;;3.05;77.30;100351.23;102541;278;94617;-58
2023/03/20 05:41:58;;;;;;;30.50;20.20;;;;;;;3.20;77.30;100351.55;102511;279;97439;-58
2023/03/20 05:44:40;;;;;;;33.40;22.10;;;;;;;3.41;77.22;100352.20;102593;279;121042;-52
2023/03/20 05:47:16;;;;;;;32.10;22.00;;;;;;;3.65;77.11;100350.94;102579;279;106277;-53
2023/03/20 05:49:59;;;;;;;34.50;23.70;;;;;;;3.88;77.07;100351.54;102581;278;113950;-53
2023/03/20 05:52:36;;;;;;;37.10;23.80;;;;;;;4.11;77.00;100354.45;102576;278;93038;-53
2023/03/20 05:55:11;;;;;;;38.40;25.10;;;;;;;4.53;77.12;100352.58;102561;279;97178;-54
2023/03/20 05:57:45;;;;;;;34.80;23.20;;;;;;;5.05;76.67;100350.14;102540;278;119949;-53
2023/03/20 06:00:23;;;;;;;36.30;25.00;;;;;;;5.61;76.44;100346.91;102513;279;105116;-53
2023/03/20 06:03:07;;;;;;;39.80;25.10;;;;;;;6.15;75.89;100346.73;102494;279;113119;-53
2023/03/20 06:05:50;;;;;;;35.00;24.40;;;;;;;6.66;75.48;100345.75;102536;279;91868;-53
2023/03/20 06:08:29;;;;;;;33.60;25.20;;;;;;;6.97;74.99;100343.37;102539;279;97819;-54
2023/03/20 06:11:05;;;;;;;36.20;25.50;;;;;;;7.18;74.58;100341.39;102509;278;119057;-59
2023/03/20 06:13:44;;;;;;;38.30;25.00;;;;;;;7.47;74.11;100344.16;102517;278;104397;-55
2023/03/20 06:16:24;;;;;;;35.20;25.80;;;;;;;8.00;73.97;100341.05;102505;278;113253;-58
2023/03/20 06:19:01;;;;;;;38.20;26.00;;;;;;;9.33;73.82;100340.66;102537;278;92620;-55
2023/03/20 06:21:37;;;;;;;35.80;24.90;;;;;;;10.85;72.91;100335.36;102559;278;98006;-53
2023/03/20 06:24:12;;;;;;;37.20;25.00;;;;;;;11.87;71.09;100331.36;102573;279;120410;-52
2023/03/20 06:26:56;;;;;;;36.40;25.70;;;;;;;12.63;70.03;100336.45;102536;279;104226;-56
2023/03/20 06:29:31;;;;;;;41.00;27.00;;;;;;;13.12;68.38;100331.58;102478;279;112890;-61
2023/03/20 06:32:13;;;;;;;38.90;27.60;;;;;;;12.75;66.88;100337.20;102541;278;95141;-57
2023/03/20 06:34:48;;;;;;;40.20;27.40;;;;;;;12.28;65.63;100340.28;102527;278;97226;-57
2023/03/20 06:37:25;;;;;;;42.40;29.20;;;;;;;12.04;64.76;100345.34;102531;279;120013;-56
2023/03/20 06:40:05;;;;;;;39.80;26.60;;;;;;;11.86;64.51;100353.31;102523;279;103838;-52
2023/03/20 06:42:46;;;;;;;39.10;28.50;;;;;;;11.77;63.59;100355.13;102423;278;113406;-53
2023/03/20 06:45:28;;;;;;;43.40;30.20;;;;;;;11.93;62.86;100352.57;102509;278;94407;-53
2023/03/20 06:48:08;;;;;;;43.40;28.90;;;;;;;11.99;62.29;100355.20;102514;278;98071;-53
2023/03/20 06:50:49;;;;;;;43.90;29.70;;;;;;;11.89;61.90;100359.21;102569;278;120010;-57
2023/03/20 06:53:27;;;;;;;43.70;30.10;;;;;;;12.11;61.16;100355.95;102576;278;103643;-56
2023/03/20 06:56:03;;;;;;;43.20;30.40;;;;;;;12.12;60.90;100358.88;102571;278;114414;-58
2023/03/20 06:58:38;;;;;;;42.10;31.20;;;;;;;12.24;60.51;100358.48;102552;278;92870;-57
2023/03/20 07:01:22;;;;;;;46.90;31.60;;;;;;;12.24;60.63;100361.78;102536;278;96628;-58
2023/03/20 07:04:03;;;;;;;44.90;31.60;;;;;;;12.29;60.31;100363.64;102568;278;119838;-58
2023/03/20 07:06:44;;;;;;;46.50;32.00;;;;;;;12.55;60.34;100359.54;102530;278;104776;-58
2023/03/20 07:09:20;;;;;;;46.10;32.60;;;;;;;12.91;59.72;100362.06;102548;278;114349;-58
2023/03/20 07:12:13;;;;;;;45.20;33.10;;;;;;;13.21;59.08;100363.09;102524;278;93560;-59
2023/03/20 07:15:02;;;;;;;49.10;34.30;;;;;;;13.47;57.92;100359.27;102435;278;96471;-54
2023/03/20 07:17:37;;;;;;;47.40;33.60;;;;;;;13.56;57.37;100360.39;102546;278;120657;-54
2023/03/20 07:20:14;;;;;;;47.50;33.50;;;;;;;13.59;56.90;100357.27;102546;279;104744;-55
2023/03/20 07:22:54;;;;;;;46.30;35.40;;;;;;;13.55;56.70;100360.31;102526;278;114259;-57
2023/03/20 07:25:37;;;;;;;48.90;35.40;;;;;;;13.64;56.42;100358.67;102579;279;94827;-58
2023/03/20 07:28:16;;;;;;;;;;;;;;;13.73;55.40;100357.58;102582;278;98319;-58
2023/03/20 07:30:53;;;;;;;49.70;33.90;;;;;;;13.73;56.18;100356.13;102527;278;120835;-60
2023/03/20 07:33:35;;;;;;;48.00;36.00;;;;;;;13.85;55.89;100359.48;102539;278;104692;-60
2023/03/20 07:36:13;;;;;;;51.50;37.30;;;;;;;14.32;55.52;100359.80;102052;279;442410;-57
2023/03/20 07:39:07;;;;;;;51.60;36.30;;;;;;;14.36;54.95;100358.55;102463;278;92967;-57
2023/03/20 07:41:54;;;;;;;51.10;36.40;;;;;;;14.23;54.19;100362.83;102522;279;98034;-59
2023/03/20 07:44:30;;;;;;;47.70;34.50;;;;;;;14.40;54.66;100357.30;102549;278;120470;-54
2023/03/20 07:47:07;;;;;;;53.10;36.50;;;;;;;15.05;54.61;100359.86;102550;278;106339;-53
2023/03/20 07:49:51;;;;;;;45.30;36.00;;;;;;;15.86;54.42;100353.36;102549;278;115790;-60
2023/03/20 07:52:31;;;;;;;49.40;36.30;;;;;;;16.32;53.71;100353.11;102526;278;94761;-63
2023/03/20 07:55:11;;;;;;;45.90;36.70;;;;;;;16.35;53.17;100354.29;102534;278;98315;-60
2023/03/20 07:57:50;;;;;;;48.60;37.10;;;;;;;16.38;52.61;100358.52;102512;278;118738;-59
2023/03/20 08:00:32;;;;;;;46.70;36.30;;;;;;;16.31;52.33;100356.52;102541;278;104256;-53
2023/03/20 08:03:14;;;;;;;47.00;36.30;;;;;;;16.68;51.41;100356.27;102502;279;112781;-53
2023/03/20 08:05:55;;;;;;;48.20;37.00;;;;;;;17.00;51.15;100354.05;102529;278;93427;-59
2023/03/20 08:08:36;;;;;;;48.20;37.70;;;;;;;16.95;50.93;100352.27;102521;278;97568;-59
2023/03/20 08:11:15;;;;;;;45.60;35.30;;;;;;;17.22;50.51;100351.04;102558;278;119543;-59
2023/03/20 08:13:59;;;;;;;40.00;33.90;;;;;;;18.12;50.59;100342.67;102427;278;105043;-54
2023/03/20 08:16:36;;;;;;;42.60;34.60;;;;;;;19.34;49.73;100340.41;102497;279;113137;-54
2023/03/20 08:19:17;;;;;;;42.30;34.30;;;;;;;20.11;48.91;100340.29;102509;279;95038;-59
2023/03/20 08:21:59;;;;;;;41.90;33.60;;;;;;;20.36;48.44;100339.45;102507;278;96448;-58
2023/03/20 08:24:37;;;;;;;42.30;33.80;;;;;;;20.89;47.10;100343.56;102526;278;120039;-59
2023/03/20 08:27:22;;;;;;;38.80;31.10;;;;;;;21.69;46.65;100339.33;102555;278;104933;-59
2023/03/20 08:30:00;;;;;;;34.20;30.00;;;;;;;22.44;45.91;100336.61;102550;279;114209;-59
2023/03/20 08:32:42;;;;;;;36.40;31.00;;;;;;;23.04;44.59;100335.90;102522;279;93038;-58
2023/03/20 08:35:17;;;;;;;36.10;30.40;;;;;;;23.45;43.56;100333.55;102520;279;95648;-55
2023/03/20 08:38:01;;;;;;;35.30;31.00;;;;;;;24.04;41.96;100334.00;102394;280;120868;-54
2023/03/20 08:40:44;;;;;;;34.60;28.90;;;;;;;24.48;40.17;100333.78;102524;279;106525;-59
2023/03/20 08:43:21;;;;;;;32.50;27.90;;;;;;;24.56;40.21;100333.15;102535;278;115941;-59
2023/03/20 08:45:56;;;;;;;31.80;28.20;;;;;;;24.72;39.53;100332.86;102571;279;94778;-59
2023/03/20 08:48:32;;;;;;;30.40;26.50;;;;;;;25.21;38.34;100336.13;102526;267;96644;-60
2023/03/20 08:51:11;;;;;;;29.20;26.10;;;;;;;25.46;38.51;100332.41;102546;279;121075;-60
2023/03/20 08:53:52;;;;;;;29.50;25.80;;;;;;;25.82;38.20;100329.84;102520;279;103521;-60
2023/03/20 08:56:28;;;;;;;28.60;25.70;;;;;;;26.10;36.66;100330.16;102497;278;115354;-60
2023/03/20 08:59:06;;;;;;;26.60;23.80;;;;;;;26.18;35.19;100332.05;102527;279;94051;-59
2023/03/20 09:01:44;;;;;;;27.00;24.20;;;;;;;26.27;35.91;100330.48;102531;279;96700;-59
2023/03/20 09:04:26;;;;;;;25.60;22.40;;;;;;;26.31;36.09;100332.00;102502;279;121069;-55
2023/03/20 09:07:07;;;;;;;25.60;22.70;;;;;;;26.41;35.23;100334.77;102473;278;105651;-54
2023/03/20 09:09:50;;;;;;;25.50;22.80;;;;;;;25.88;35.06;100334.71;102530;278;113126;-55
2023/03/20 09:12:30;;;;;;;24.20;21.60;;;;;;;25.78;34.61;100333.59;102555;279;92558;-55
2023/03/20 09:15:08;;;;;;;22.50;20.10;;;;;;;26.24;33.32;100333.36;102535;278;98590;-59
2023/03/20 09:17:43;;;;;;;22.50;20.20;;;;;;;25.89;33.75;100327.55;102555;278;119816;-61
2023/03/20 09:20:20;;;;;;;24.40;21.80;;;;;;;25.63;33.03;100329.84;102530;279;105372;-60
2023/03/20 09:23:00;;;;;;;23.50;20.60;;;;;;;25.18;32.26;100326.67;102544;279;113645;-60
2023/03/20 09:25:39;;;;;;;25.40;22.00;;;;;;;24.43;32.71;100321.98;102527;278;93890;-55
2023/03/20 09:28:17;;;;;;;24.20;21.50;;;;;;;24.09;33.29;100320.76;102502;279;97727;-56
2023/03/20 09:30:59;;;;;;;23.30;20.90;;;;;;;24.35;33.22;100318.54;102542;279;119585;-58
2023/03/20 09:33:36;;;;;;;21.50;18.90;;;;;;;24.17;33.40;100313.17;102546;278;104497;-60
2023/03/20 09:36:12;;;;;;;24.20;19.70;;;;;;;23.69;33.53;100316.73;102517;279;113903;-58
2023/03/20 09:39:00;;;;;;;26.40;21.10;;;;;;;23.41;32.38;100316.94;102504;279;93910;-60
2023/03/20 09:41:46;;;;;;;25.30;20.20;;;;;;;22.88;33.29;100314.16;102404;279;97536;-54
2023/03/20 09:44:25;;;;;;;;;;;;;;;22.84;33.32;100314.86;102537;278;121311;-55
2023/03/20 09:47:15;;;;;;;22.90;19.90;;;;;;;22.64;33.68;100322.39;102515;279;104648;-54
2023/03/20 09:50:09;;;;;;;25.20;20.90;;;;;;;22.71;33.58;100317.42;102534;278;116513;-60
2023/03/20 09:52:58;;;;;;;24.30;21.40;;;;;;;22.37;33.79;100317.86;102529;278;94944;-59
2023/03/20 09:55:40;;;;;;;26.70;21.60;;;;;;;21.89;34.78;100320.40;102559;278;96508;-55
2023/03/20 09:58:24;;;;;;;26.30;20.20;;;;;;;21.65;34.84;100324.11;102530;278;120618;-54
2023/03/20 10:01:07;;;;;;;21.90;19.40;;;;;;;21.36;35.17;100324.48;102556;278;105547;-58
2023/03/20 10:03:54;;;;;;;25.20;20.90;;;;;;;21.04;35.05;100327.41;102518;278;115394;-58
2023/03/20 10:06:34;;;;;;;26.80;21.80;;;;;;;20.94;35.86;100327.23;102529;278;93115;-65
2023/03/20 10:09:21;;;;;;;30.50;22.40;;;;;;;21.06;36.05;100326.94;102535;278;95887;-64
2023/03/20 10:12:39;;;;;;;28.40;23.50;;;;;;;21.02;36.16;100327.21;102537;278;119349;-63
2023/03/20 10:15:29;;;;;;;28.70;24.00;;;;;;;20.91;36.70;100329.64;102512;278;104868;-65
2023/03/20 10:18:16;;;;;;;30.40;23.30;;;;;;;20.82;36.85;100329.52;102462;278;114989;-64
2023/03/20 10:21:01;;;;;;;31.60;24.80;;;;;;;20.65;37.13;100325.86;102517;278;94753;-64
2023/03/20 10:23:49;;;;;;;33.70;26.40;;;;;;;20.58;36.88;100326.17;102505;278;97230;-64
2023/03/20 10:26:34;;;;;;;32.70;26.40;;;;;;;20.08;37.09;100323.15;102680;278;120619;-63
2023/03/20 10:29:24;;;;;;;32.90;27.10;;;;;;;19.81;37.42;100324.76;102488;278;105453;-59
2023/03/20 10:32:11;;;;;;;31.90;27.00;;;;;;;19.62;37.71;100322.23;102368;279;115013;-59
2023/03/20 10:35:07;;;;;;;36.10;29.60;;;;;;;19.36;38.34;100325.27;102581;278;95577;-59
2023/03/20 10:38:08;;;;;;;38.70;29.70;;;;;;;19.11;38.81;100323.77;102526;278;97817;-59
2023/03/20 10:40:44;;;;;;;38.30;31.20;;;;;;;19.00;39.51;100322.23;102568;278;119990;-64
2023/03/20 10:43:25;;;;;;;40.70;33.30;;;;;;;18.69;40.17;100322.54;102552;278;104636;-64
2023/03/20 10:46:06;;;;;;;43.20;35.10;;;;;;;18.54;40.41;100325.02;102529;278;114274;-59
2023/03/20 10:48:49;;;;;;;43.80;35.30;;;;;;;18.39;40.94;100322.16;102572;278;94159;-58
2023/03/20 10:51:36;;;;;;;42.90;35.50;;;;;;;18.40;41.26;100321.99;102536;278;97974;-63
2023/03/20 10:54:27;;;;;;;46.90;35.50;;;;;;;18.38;41.90;100318.90;102483;278;120592;-63
2023/03/20 10:57:05;;;;;;;45.10;34.00;;;;;;;18.46;42.13;100320.71;102508;278;103960;-62
2023/03/20 10:59:51;;;;;;;42.40;31.80;;;;;;;18.60;42.21;100314.67;102574;279;113222;-63
2023/03/20 11:02:34;;;;;;;42.20;32.80;;;;;;;18.56;42.27;100307.77;102540;278;94538;-63
2023/03/20 11:05:25;;;;;;;42.00;32.10;;;;;;;18.74;42.28;100307.18;102560;278;97931;-59
2023/03/20 11:08:09;;;;;;;43.30;33.40;;;;;;;18.82;41.95;100306.30;102562;278;120371;-59
2023/03/20 11:10:45;;;;;;;40.80;31.40;;;;;;;18.68;41.91;100302.09;102584;278;102457;-63
2023/03/20 11:13:31;;;;;;;41.80;31.40;;;;;;;18.80;42.36;100294.16;102381;269;115122;-64
2023/03/20 11:16:24;;;;;;;36.10;30.10;;;;;;;19.00;42.45;100298.13;102578;278;94677;-59
2023/03/20 11:19:08;;;;;;;39.20;29.30;;;;;;;19.11;42.33;100292.04;102377;279;99220;-55
2023/03/20 11:21:54;;;;;;;37.50;29.40;;;;;;;19.25;42.34;100285.25;102534;278;120605;-55
2023/03/20 11:24:41;;;;;;;38.40;28.80;;;;;;;19.17;41.27;100287.00;102532;278;105907;-60
2023/03/20 11:27:24;;;;;;;36.70;28.20;;;;;;;18.97;41.26;100283.96;102534;278;113592;-59
2023/03/20 11:30:06;;;;;;;39.50;28.90;;;;;;;18.97;41.55;100284.01;102533;278;93755;-55
2023/03/20 11:32:55;;;;;;;36.90;28.60;;;;;;;18.83;41.62;100277.41;102545;275;97018;-55
2023/03/20 11:35:34;;;;;;;34.00;26.30;;;;;;;18.67;41.68;100279.52;102552;278;121028;-54
2023/03/20 11:38:20;;;;;;;35.30;26.40;;;;;;;18.53;41.66;100271.63;102535;278;105816;-54
2023/03/20 11:40:59;;;;;;;34.20;25.40;;;;;;;18.42;41.97;100272.59;102495;278;113711;-58
2023/03/20 11:43:41;;;;;;;36.60;26.50;;;;;;;18.45;41.85;100270.70;102539;278;93149;-53
2023/03/20 11:46:16;;;;;;;37.90;26.70;;;;;;;18.23;41.96;100273.38;102542;278;95845;-58
2023/03/20 11:49:05;;;;;;;36.40;24.50;;;;;;;18.24;42.19;100270.11;102514;278;119937;-59
2023/03/20 11:51:39;;;;;;;35.30;26.50;;;;;;;18.20;42.14;100266.69;102519;278;104523;-59
2023/03/20 11:54:28;;;;;;;36.60;25.50;;;;;;;18.21;42.04;100270.36;102542;278;112041;-58
2023/03/20 11:57:03;;;;;;;35.70;27.20;;;;;;;18.27;42.26;100264.71;102390;280;94552;-59
2023/03/20 11:59:40;;;;;;;31.40;24.40;;;;;;;18.47;42.47;100263.73;102558;278;97676;-62
2023/03/20 12:02:25;;;;;;;32.50;25.20;;;;;;;18.75;42.72;100259.92;102532;278;120890;-62
2023/03/20 12:05:21;;;;;;;31.90;24.20;;;;;;;18.86;42.20;100256.77;102533;278;104280;-60
2023/03/20 12:07:59;;;;;;;30.20;24.70;;;;;;;18.85;42.06;100251.77;102557;274;114142;-60
2023/03/20 12:10:40;;;;;;;29.50;19.50;;;;;;;18.94;41.27;100247.27;102551;278;95136;-60
2023/03/20 12:13:28;;;;;;;26.70;19.70;;;;;;;18.92;41.03;100248.88;102574;278;97713;-60
2023/03/20 12:16:14;;;;;;;27.00;18.90;;;;;;;18.93;40.74;100244.59;102570;278;120196;-59
2023/03/20 12:19:00;;;;;;;25.90;18.20;;;;;;;18.83;40.44;100243.95;102517;278;106868;-58